Terminal Aerodrome Forecast
Issued by NWS

Home | Current Version | Previous Version | Text Only | Print | Product List | Glossary On
Versions: 1 2 3 4 5 6 7 8 9 10 11 12 13
917
FTPA31 PHFO 270535
TAFHKO
TAF
PHKO 270535Z 2706/2806 18008KT P6SM FEW030 BKN050
     FM270800 10005KT P6SM FEW030 BKN050
     FM271900 20010KT P6SM FEW030 SCT050=

USA.gov is the U.S. government's official web portal to all federal, state and local government web resources and services.